Time;durP1;ratioP1;P1;durP2;ratioP2;P2;SDS_P1;SDS_P2;PMS_P1;PMS_P2;Temp;Humidity;BMP_temperature;BMP_pressure;BME280_temperature;BME280_humidity;BME280_pressure;Samples;Min_cycle;Max_cycle;Signal;HPM_P1;HPM_P2
2021/08/17 00:00:45;;;;;;;20.73;12.90;;;15.10;99.90;;;;;;6225505;28;20018;-78
2021/08/17 00:03:45;;;;;;;17.92;11.60;;;15.10;99.90;;;;;;6225596;28;20030;-79
2021/08/17 00:06:46;;;;;;;21.40;13.18;;;14.90;99.90;;;;;;6191697;28;20037;-78
2021/08/17 00:09:46;;;;;;;21.98;13.93;;;14.90;99.90;;;;;;6224927;28;20026;-77
2021/08/17 00:12:48;;;;;;;20.80;14.25;;;14.80;99.90;;;;;;6225164;28;20034;-79
2021/08/17 00:15:48;;;;;;;23.40;14.87;;;14.90;99.90;;;;;;6225183;28;20037;-78
2021/08/17 00:18:49;;;;;;;22.70;15.88;;;;;;;;;;6207512;28;20022;-78
2021/08/17 00:21:50;;;;;;;24.13;16.73;;;;;;;;;;6224998;28;20033;-78
2021/08/17 00:24:51;;;;;;;25.05;16.50;;;14.60;99.90;;;;;;6224604;28;20403;-79
2021/08/17 00:27:52;;;;;;;21.23;15.40;;;;;;;;;;6224548;28;20041;-78
2021/08/17 00:30:53;;;;;;;31.52;17.70;;;;;;;;;;6224419;28;20018;-79
2021/08/17 00:33:54;;;;;;;26.40;16.77;;;;;;;;;;6224078;28;20403;-78
2021/08/17 00:36:55;;;;;;;27.20;18.05;;;;;;;;;;6224718;28;20038;-77
2021/08/17 00:39:56;;;;;;;25.40;17.73;;;;;;;;;;6206982;28;20062;-78
2021/08/17 00:42:57;;;;;;;31.50;18.35;;;;;;;;;;6224265;28;20022;-78
2021/08/17 00:45:58;;;;;;;30.15;18.45;;;;;;;;;;6224208;28;20101;-76
2021/08/17 00:48:59;;;;;;;26.42;17.85;;;14.50;99.90;;;;;;6224097;28;20037;-77
2021/08/17 00:52:04;;;;;;;25.70;17.80;;;14.40;99.90;;;;;;6224280;28;20106;-78
2021/08/17 00:55:05;;;;;;;27.67;16.98;;;14.30;99.90;;;;;;6206725;28;20415;-77
2021/08/17 00:58:05;;;;;;;26.90;16.90;;;14.30;99.90;;;;;;6224129;28;20029;-79
2021/08/17 01:01:06;;;;;;;29.45;17.80;;;14.10;99.90;;;;;;6224517;28;20029;-78
2021/08/17 01:04:08;;;;;;;28.08;18.10;;;14.00;99.90;;;;;;6224231;28;20384;-77
2021/08/17 01:07:09;;;;;;;24.73;16.58;;;14.00;99.90;;;;;;6224117;28;20033;-78
2021/08/17 01:10:10;;;;;;;25.65;17.17;;;14.10;99.90;;;;;;6223709;28;20104;-79
2021/08/17 01:13:11;;;;;;;25.77;17.05;;;14.10;99.90;;;;;;6224144;28;20109;-77
2021/08/17 01:16:11;;;;;;;25.27;15.85;;;14.20;99.90;;;;;;6223493;28;20042;-77
2021/08/17 01:19:13;;;;;;;22.50;15.70;;;14.10;99.90;;;;;;6223735;28;20375;-77
2021/08/17 01:22:14;;;;;;;24.95;15.45;;;14.00;99.90;;;;;;6223817;28;20104;-77
2021/08/17 01:25:15;;;;;;;21.50;14.63;;;14.30;99.90;;;;;;6205948;28;20034;-76
2021/08/17 01:28:15;;;;;;;27.83;16.67;;;14.30;99.90;;;;;;6205650;28;20052;-77
2021/08/17 01:31:16;;;;;;;24.92;15.68;;;14.00;99.90;;;;;;6223373;28;20026;-77
2021/08/17 01:34:16;;;;;;;24.85;15.55;;;14.00;99.90;;;;;;6223010;28;20103;-77
2021/08/17 01:37:17;;;;;;;24.58;15.85;;;13.90;99.90;;;;;;6222959;28;20396;-77
2021/08/17 01:40:18;;;;;;;24.85;15.57;;;13.90;99.90;;;;;;6223189;28;20034;-77
2021/08/17 01:43:18;;;;;;;24.48;14.93;;;14.00;99.90;;;;;;6223033;28;20026;-76
2021/08/17 01:46:19;;;;;;;23.88;15.57;;;14.10;99.90;;;;;;6205609;28;20391;-78
2021/08/17 01:49:19;;;;;;;20.55;13.75;;;13.90;99.90;;;;;;6205705;28;20025;-78
2021/08/17 01:52:20;;;;;;;23.38;15.07;;;14.00;99.90;;;;;;6205713;28;20748;-78
2021/08/17 01:55:21;;;;;;;21.38;13.50;;;14.00;99.90;;;;;;6222864;28;20361;-79
2021/08/17 01:58:25;;;;;;;22.60;13.90;;;14.10;99.90;;;;;;6222942;28;20053;-76
2021/08/17 02:01:25;;;;;;;26.70;13.35;;;14.10;99.90;;;;;;6205583;28;20112;-78
2021/08/17 02:04:28;;;;;;;19.88;13.43;;;14.10;99.90;;;;;;6222856;28;20055;-78
2021/08/17 02:07:28;;;;;;;22.27;14.00;;;14.10;99.90;;;;;;6223147;28;20034;-78
2021/08/17 02:10:29;;;;;;;18.23;12.88;;;14.10;99.90;;;;;;6223043;28;20076;-79
2021/08/17 02:13:30;;;;;;;18.38;13.68;;;14.10;99.90;;;;;;6222977;28;20065;-78
2021/08/17 02:16:31;;;;;;;19.88;12.23;;;14.10;99.90;;;;;;6222905;28;20034;-78
2021/08/17 02:19:31;;;;;;;21.35;12.80;;;14.10;99.90;;;;;;6222558;28;20095;-78
2021/08/17 02:22:32;;;;;;;17.63;12.32;;;14.00;99.90;;;;;;6205134;28;20160;-77
2021/08/17 02:25:32;;;;;;;17.50;12.10;;;14.10;99.90;;;;;;6222942;28;20033;-78
2021/08/17 02:28:33;;;;;;;17.65;13.10;;;14.10;99.90;;;;;;6222731;28;20033;-78
2021/08/17 02:31:34;;;;;;;17.00;12.13;;;14.10;99.90;;;;;;6189119;28;20038;-78
2021/08/17 02:34:34;;;;;;;20.60;12.77;;;14.10;99.90;;;;;;6222308;28;20492;-77
2021/08/17 02:37:35;;;;;;;21.30;14.60;;;14.10;99.90;;;;;;6222524;28;20026;-77
2021/08/17 02:40:35;;;;;;;20.80;14.40;;;14.00;99.90;;;;;;6222794;28;20115;-77
2021/08/17 02:43:36;;;;;;;21.08;13.88;;;14.00;99.90;;;;;;6204961;28;20030;-78
2021/08/17 02:46:36;;;;;;;19.38;12.50;;;14.00;99.90;;;;;;6222773;28;20034;-78
2021/08/17 02:49:37;;;;;;;18.90;13.02;;;14.00;99.90;;;;;;6208291;28;20026;-77
2021/08/17 02:52:38;;;;;;;19.15;12.75;;;14.00;99.90;;;;;;6227044;28;20030;-77
2021/08/17 02:55:38;;;;;;;16.83;11.27;;;13.90;99.90;;;;;;6227022;28;20041;-78
2021/08/17 02:58:39;;;;;;;16.90;10.82;;;13.90;99.90;;;;;;6226711;28;20037;-77
2021/08/17 03:01:39;;;;;;;22.27;12.57;;;13.80;99.90;;;;;;6226621;28;20037;-79
2021/08/17 03:04:40;;;;;;;19.45;12.85;;;13.70;99.90;;;;;;6209300;28;20026;-78
2021/08/17 03:07:54;;;;;;;21.13;12.98;;;13.70;99.90;;;;;;6226761;28;20022;-77
2021/08/17 03:10:54;;;;;;;17.52;12.10;;;13.70;99.90;;;;;;6192588;28;20080;-77
2021/08/17 03:13:57;;;;;;;18.30;12.27;;;13.60;99.90;;;;;;6226551;28;20468;-77
2021/08/17 03:16:57;;;;;;;16.27;11.93;;;13.60;99.90;;;;;;6226579;28;20037;-77
2021/08/17 03:19:58;;;;;;;17.08;12.38;;;13.60;99.90;;;;;;6227039;28;20034;-78
2021/08/17 03:22:59;;;;;;;17.23;12.00;;;13.60;99.90;;;;;;6226190;28;20042;-78
2021/08/17 03:25:59;;;;;;;17.45;11.68;;;13.60;99.90;;;;;;6226140;28;20026;-79
2021/08/17 03:29:00;;;;;;;18.88;12.07;;;13.70;99.90;;;;;;6208426;28;20028;-76
2021/08/17 03:32:00;;;;;;;17.65;11.77;;;13.60;99.90;;;;;;6226588;28;20041;-78
2021/08/17 03:35:01;;;;;;;17.75;12.73;;;13.60;99.90;;;;;;6208177;28;20405;-77
2021/08/17 03:38:02;;;;;;;15.55;11.65;;;13.60;99.90;;;;;;6225765;28;20030;-77
2021/08/17 03:41:02;;;;;;;20.25;12.43;;;13.60;99.90;;;;;;6225790;28;20026;-77
2021/08/17 03:44:03;;;;;;;17.42;11.60;;;13.70;99.90;;;;;;6226055;28;20053;-77
2021/08/17 03:47:04;;;;;;;20.48;11.82;;;13.60;99.90;;;;;;6226159;28;20065;-77
2021/08/17 03:50:06;;;;;;;16.20;11.35;;;13.60;99.90;;;;;;6208176;28;20530;-77
2021/08/17 03:53:06;;;;;;;15.23;11.60;;;13.60;99.90;;;;;;6225795;28;20384;-78
2021/08/17 03:56:07;;;;;;;15.30;10.55;;;13.40;99.90;;;;;;6225394;28;20125;-78
2021/08/17 03:59:08;;;;;;;15.23;10.63;;;13.50;99.90;;;;;;6226089;28;20376;-79
2021/08/17 04:02:08;;;;;;;15.05;10.85;;;13.40;99.90;;;;;;6224938;28;20483;-79
2021/08/17 04:05:09;;;;;;;16.40;10.60;;;13.30;99.90;;;;;;6225191;28;20021;-77
2021/08/17 04:08:10;;;;;;;16.20;9.85;;;13.40;99.90;;;;;;6225502;28;20451;-78
2021/08/17 04:11:10;;;;;;;13.02;9.88;;;13.20;99.90;;;;;;6225091;28;20021;-79
2021/08/17 04:14:11;;;;;;;15.23;11.02;;;;;;;;;;6224952;28;20029;-79
2021/08/17 04:17:12;;;;;;;16.50;10.63;;;;;;;;;;6224981;28;20036;-76
2021/08/17 04:20:15;;;;;;;16.90;11.05;;;;;;;;;;6224938;28;20026;-76
2021/08/17 04:23:17;;;;;;;18.17;10.85;;;13.40;99.90;;;;;;6225054;28;20030;-78
2021/08/17 04:26:17;;;;;;;16.27;11.13;;;13.40;99.90;;;;;;6225112;28;20033;-77
2021/08/17 04:29:18;;;;;;;15.57;10.57;;;13.40;99.90;;;;;;6207084;28;20381;-78
2021/08/17 04:32:18;;;;;;;17.30;10.82;;;13.50;99.90;;;;;;6224368;28;20037;-80
2021/08/17 04:35:19;;;;;;;14.90;10.15;;;13.50;99.90;;;;;;6224478;28;20073;-76
2021/08/17 04:38:20;;;;;;;14.48;10.57;;;13.50;99.90;;;;;;6224387;28;20037;-77
2021/08/17 04:41:21;;;;;;;13.77;9.73;;;13.50;99.90;;;;;;6224367;28;20034;-77
2021/08/17 04:44:28;;;;;;;16.00;9.90;;;13.70;99.90;;;;;;6225413;28;20030;-77
2021/08/17 04:47:56;;;;;;;13.52;9.23;;;13.20;99.90;;;;;;6214345;28;20030;-79
2021/08/17 04:50:58;;;;;;;13.30;7.97;;;;;;;;;;6227815;28;20030;-77
2021/08/17 04:53:59;;;;;;;10.63;8.15;;;;;;;;;;6223745;28;20022;-76
2021/08/17 04:57:00;;;;;;;12.88;8.93;;;;;;;;;;6224024;28;20022;-76
2021/08/17 05:00:01;;;;;;;16.38;9.55;;;13.80;99.90;;;;;;6224349;28;20030;-77
2021/08/17 05:03:02;;;;;;;15.00;9.73;;;;;;;;;;6223911;28;20037;-78
2021/08/17 05:06:02;;;;;;;16.75;9.82;;;13.70;99.90;;;;;;6206571;28;20444;-78
2021/08/17 05:09:04;;;;;;;14.68;9.77;;;13.80;99.90;;;;;;6223865;28;20021;-78
2021/08/17 05:12:05;;;;;;;21.05;12.25;;;13.80;99.90;;;;;;6223570;28;20109;-77
2021/08/17 05:15:06;;;;;;;25.30;13.65;;;13.90;99.90;;;;;;6223940;28;20446;-76
2021/08/17 05:18:07;;;;;;;14.27;9.20;;;14.00;99.90;;;;;;6223507;28;20391;-77
2021/08/17 05:21:07;;;;;;;14.40;8.55;;;14.20;99.90;;;;;;6223763;28;20056;-78
2021/08/17 05:24:08;;;;;;;11.27;8.23;;;14.20;99.90;;;;;;6223711;28;20030;-79
2021/08/17 05:27:09;;;;;;;11.70;8.60;;;14.20;99.90;;;;;;6205910;28;20033;-76
2021/08/17 05:30:09;;;;;;;11.25;7.60;;;14.10;99.90;;;;;;6223289;28;20018;-78
2021/08/17 05:33:10;;;;;;;14.07;8.02;;;14.10;99.90;;;;;;6223081;28;20084;-77
2021/08/17 05:36:11;;;;;;;14.73;8.35;;;14.20;99.90;;;;;;6223455;28;20054;-76
2021/08/17 05:39:11;;;;;;;13.75;7.95;;;14.30;99.90;;;;;;6223423;28;20054;-77
2021/08/17 05:42:12;;;;;;;12.65;7.82;;;14.50;99.90;;;;;;6223445;28;20076;-78
2021/08/17 05:45:12;;;;;;;12.63;7.40;;;15.20;99.90;;;;;;6205691;28;20030;-77
2021/08/17 05:48:13;;;;;;;11.15;7.93;;;15.90;99.90;;;;;;6223224;28;20065;-78
2021/08/17 05:51:14;;;;;;;14.43;9.32;;;16.60;99.90;;;;;;6223445;28;20056;-78
2021/08/17 05:54:14;;;;;;;10.77;8.55;;;17.00;99.90;;;;;;6223097;28;20029;-78
2021/08/17 05:57:15;;;;;;;12.95;8.73;;;17.40;99.90;;;;;;6223218;28;20030;-77
2021/08/17 06:00:16;;;;;;;14.35;8.43;;;18.00;99.90;;;;;;6222966;28;20025;-78
2021/08/17 06:03:16;;;;;;;12.80;8.02;;;18.40;99.90;;;;;;6223188;28;20026;-77
2021/08/17 06:06:17;;;;;;;13.73;10.07;;;18.50;99.90;;;;;;6223222;28;20105;-77
2021/08/17 06:09:21;;;;;;;13.13;8.90;;;19.20;99.90;;;;;;6205408;28;20041;-77
2021/08/17 06:12:21;;;;;;;12.80;8.20;;;18.70;99.90;;;;;;6205980;28;20109;-78
2021/08/17 06:15:23;;;;;;;12.00;8.05;;;18.50;99.90;;;;;;6222728;28;20064;-78
2021/08/17 06:18:23;;;;;;;12.38;8.75;;;18.10;99.90;;;;;;6222649;28;20503;-77
2021/08/17 06:21:24;;;;;;;12.63;9.15;;;18.10;99.90;;;;;;6222973;28;20041;-76
2021/08/17 06:24:24;;;;;;;15.60;10.07;;;18.50;99.90;;;;;;6226016;28;20030;-78
2021/08/17 06:27:25;;;;;;;12.32;8.70;;;18.90;99.90;;;;;;6228026;28;20356;-77
2021/08/17 06:30:26;;;;;;;14.30;9.35;;;19.40;99.90;;;;;;6227504;28;20113;-77
2021/08/17 06:33:26;;;;;;;10.98;8.30;;;19.90;99.90;;;;;;6227208;28;20057;-78
2021/08/17 06:36:27;;;;;;;12.50;8.50;;;20.30;98.90;;;;;;6227509;28;20388;-78
2021/08/17 06:39:28;;;;;;;11.30;8.13;;;20.20;99.10;;;;;;6227561;28;20033;-80
2021/08/17 06:42:29;;;;;;;14.93;8.50;;;20.60;98.50;;;;;;6227084;28;20464;-78
2021/08/17 06:45:29;;;;;;;10.38;8.05;;;20.90;97.80;;;;;;6227012;28;20064;-79
2021/08/17 06:48:30;;;;;;;9.25;7.72;;;21.10;96.70;;;;;;6227014;28;20030;-77
2021/08/17 06:51:30;;;;;;;9.45;7.40;;;21.50;96.20;;;;;;6227239;28;20029;-78
2021/08/17 06:54:31;;;;;;;8.50;6.60;;;21.40;94.50;;;;;;6227178;28;20048;-77
2021/08/17 06:57:32;;;;;;;10.52;8.07;;;;;;;;;;6227099;28;20028;-79
2021/08/17 07:00:33;;;;;;;12.45;6.60;;;21.40;93.70;;;;;;6193144;28;20079;-77
2021/08/17 07:03:33;;;;;;;12.43;7.80;;;21.10;94.30;;;;;;6226575;28;20466;-79
2021/08/17 07:06:35;;;;;;;10.77;7.45;;;;;;;;;;6227234;28;20026;-79
2021/08/17 07:09:36;;;;;;;10.30;7.78;;;21.70;93.00;;;;;;6226665;28;20028;-79
2021/08/17 07:12:36;;;;;;;10.57;8.35;;;22.10;93.10;;;;;;6227158;28;20464;-80
2021/08/17 07:15:37;;;;;;;11.40;8.05;;;22.60;91.00;;;;;;6226342;28;20395;-78
2021/08/17 07:18:37;;;;;;;10.40;7.55;;;22.90;90.20;;;;;;6226298;28;20030;-78
2021/08/17 07:21:38;;;;;;;11.55;7.63;;;23.30;88.30;;;;;;6226659;28;20057;-78
2021/08/17 07:24:39;;;;;;;10.55;8.40;;;23.00;87.10;;;;;;6226224;28;20034;-78
2021/08/17 07:27:40;;;;;;;10.85;6.82;;;23.50;87.20;;;;;;6226397;28;20473;-79
2021/08/17 07:30:41;;;;;;;10.10;7.35;;;24.20;84.90;;;;;;6225921;28;20037;-81
2021/08/17 07:33:41;;;;;;;8.30;6.85;;;25.30;80.10;;;;;;6225785;28;20050;-81
2021/08/17 07:36:42;;;;;;;10.57;7.20;;;25.80;75.80;;;;;;6207723;28;20057;-80
2021/08/17 07:39:42;;;;;;;9.00;7.33;;;26.10;71.80;;;;;;6208389;28;20379;-80
2021/08/17 07:42:45;;;;;;;9.30;7.53;;;26.10;67.30;;;;;;6226218;28;20084;-80
2021/08/17 07:45:45;;;;;;;11.43;7.88;;;26.40;92.60;;;;;;6225644;28;20030;-81
2021/08/17 07:48:46;;;;;;;12.17;8.50;;;26.30;69.00;;;;;;6208160;28;20029;-80
2021/08/17 07:51:47;;;;;;;10.17;8.27;;;26.90;75.20;;;;;;6192133;28;20120;-81
2021/08/17 07:54:47;;;;;;;12.43;9.30;;;26.70;66.40;;;;;;6225764;28;20450;-81
2021/08/17 07:57:48;;;;;;;12.90;10.00;;;26.90;75.80;;;;;;6225430;28;20026;-82
2021/08/17 08:00:48;;;;;;;11.73;9.90;;;27.50;89.00;;;;;;6208081;28;20032;-80
2021/08/17 08:03:52;;;;;;;12.70;9.40;;;27.40;89.80;;;;;;6225635;28;20030;-80
2021/08/17 08:06:53;;;;;;;14.18;9.40;;;;;;;;;;6225422;28;20439;-81
2021/08/17 08:09:54;;;;;;;11.23;8.60;;;;;;;;;;6225270;28;20077;-82
2021/08/17 08:12:55;;;;;;;11.80;8.63;;;25.40;58.90;;;;;;6225401;28;20367;-82
2021/08/17 08:15:55;;;;;;;10.33;7.53;;;24.20;74.90;;;;;;6207508;28;20038;-79
2021/08/17 08:18:59;;;;;;;11.33;8.70;;;;;;;;;;6224961;28;20048;-82
2021/08/17 08:22:00;;;;;;;12.77;8.23;;;23.10;66.00;;;;;;6191450;28;20096;-80
2021/08/17 08:25:00;;;;;;;10.93;8.37;;;22.90;69.80;;;;;;6224741;28;20065;-79
2021/08/17 08:28:01;;;;;;;14.80;9.13;;;23.60;72.30;;;;;;6224931;28;20456;-82
2021/08/17 08:31:01;;;;;;;10.27;8.80;;;24.80;82.10;;;;;;6191094;28;20049;-79
2021/08/17 08:34:02;;;;;;;12.98;9.73;;;26.00;63.40;;;;;;6190651;28;20058;-81
2021/08/17 08:37:03;;;;;;;9.87;8.00;;;26.20;80.00;;;;;;6207369;28;20041;-83
2021/08/17 08:40:04;;;;;;;11.10;9.40;;;26.60;62.40;;;;;;6207019;28;20468;-81
2021/08/17 08:43:05;;;;;;;10.65;8.70;;;26.50;64.50;;;;;;6206946;28;20472;-80
2021/08/17 08:46:05;;;;;;;12.23;8.90;;;26.50;63.40;;;;;;6224058;28;20041;-81
2021/08/17 08:49:06;;;;;;;13.27;9.37;;;26.30;61.90;;;;;;6206604;28;20029;-81
2021/08/17 08:52:06;;;;;;;11.33;9.07;;;26.40;64.00;;;;;;6190296;28;20026;-80
2021/08/17 08:55:08;;;;;;;11.77;8.90;;;27.00;62.30;;;;;;6224467;28;20491;-80
2021/08/17 08:58:08;;;;;;;10.57;9.02;;;27.10;59.60;;;;;;6206893;28;20033;-81
2021/08/17 09:01:10;;;;;;;11.33;7.83;;;27.20;60.00;;;;;;6190346;28;20076;-80
2021/08/17 09:04:12;;;;;;;13.63;9.43;;;27.50;60.90;;;;;;6190274;28;20030;-80
2021/08/17 09:07:12;;;;;;;11.07;7.95;;;27.70;63.00;;;;;;6190498;28;20038;-83
2021/08/17 09:10:20;;;;;;;10.60;8.57;;;27.90;62.10;;;;;;6224673;28;20057;-79
2021/08/17 09:13:23;;;;;;;10.13;8.43;;;27.10;59.30;;;;;;6223869;28;20427;-81
2021/08/17 09:16:31;;;;;;;10.35;8.45;;;26.50;61.00;;;;;;6206148;28;20072;-80
2021/08/17 09:19:39;;;;;;;16.10;10.13;;;25.20;81.60;;;;;;6206345;28;20037;-80
2021/08/17 09:22:41;;;;;;;29.58;14.13;;;25.30;65.50;;;;;;6205957;28;20030;-82
2021/08/17 09:25:42;;;;;;;10.20;8.50;;;26.20;64.30;;;;;;6223864;28;20025;-82
2021/08/17 09:28:42;;;;;;;13.27;9.30;;;25.10;60.90;;;;;;6206087;28;20080;-82
2021/08/17 09:31:45;;;;;;;25.90;12.73;;;24.80;64.70;;;;;;6223249;28;20088;-81
2021/08/17 09:34:48;;;;;;;9.93;7.43;;;24.70;68.10;;;;;;6223121;28;20081;-79
2021/08/17 09:38:08;;;;;;;19.00;10.35;;;24.90;67.60;;;;;;6223302;28;20388;-78
2021/08/17 09:41:23;;;;;;;39.00;17.70;;;24.90;67.50;;;;;;6223456;28;20033;-80
2021/08/17 09:44:23;;;;;;;18.33;10.18;;;24.80;67.70;;;;;;6205644;28;20029;-81
2021/08/17 09:47:27;;;;;;;23.27;11.13;;;25.30;67.00;;;;;;6205816;28;20037;-79
2021/08/17 09:50:29;;;;;;;17.45;9.88;;;26.00;62.00;;;;;;6205585;28;20037;-82
2021/08/17 09:53:30;;;;;;;10.90;8.15;;;26.20;62.50;;;;;;6205736;28;20026;-80
2021/08/17 09:56:30;;;;;;;9.93;7.67;;;26.60;61.00;;;;;;6223259;28;20084;-79
2021/08/17 09:59:32;;;;;;;9.77;7.77;;;27.30;56.10;;;;;;6205675;28;20357;-82
2021/08/17 10:02:33;;;;;;;;;;;27.30;59.30;;;;;;6205959;28;20455;-83
2021/08/17 10:05:33;;;;;;;8.93;7.32;;;27.10;57.20;;;;;;6222719;28;19912;-80
2021/08/17 10:08:34;;;;;;;10.67;7.87;;;27.50;58.70;;;;;;6205585;28;20022;-80
2021/08/17 10:11:35;;;;;;;8.93;7.35;;;27.60;82.60;;;;;;6189560;28;20411;-81
2021/08/17 10:14:36;;;;;;;9.53;7.33;;;27.30;75.80;;;;;;6189378;28;20074;-80
2021/08/17 10:17:36;;;;;;;9.23;7.27;;;27.80;83.50;;;;;;6222669;28;20022;-81
2021/08/17 10:20:38;;;;;;;7.60;6.13;;;28.00;84.60;;;;;;6205241;28;20486;-79
2021/08/17 10:23:44;;;;;;;8.52;6.85;;;28.30;84.80;;;;;;6222583;28;20375;-80
2021/08/17 10:26:44;;;;;;;10.70;8.55;;;27.70;86.50;;;;;;6222638;28;20026;-80
2021/08/17 10:29:56;;;;;;;12.00;8.63;;;27.70;86.40;;;;;;6189084;28;20037;-79
2021/08/17 10:32:58;;;;;;;8.38;6.97;;;27.20;86.40;;;;;;6205545;28;20042;-79
2021/08/17 10:35:59;;;;;;;8.90;7.65;;;;;;;;;;6222655;28;20042;-82
2021/08/17 10:39:05;;;;;;;9.68;7.40;;;27.10;63.90;;;;;;6222646;28;20033;-80
2021/08/17 10:42:25;;;;;;;9.52;8.07;;;26.50;58.50;;;;;;6222633;28;20472;-79
2021/08/17 10:45:26;;;;;;;8.93;7.32;;;25.70;89.10;;;;;;6222925;28;20033;-80
2021/08/17 10:48:46;;;;;;;11.48;8.32;;;25.10;91.40;;;;;;6222524;28;20073;-79
2021/08/17 10:51:50;;;;;;;12.00;8.38;;;24.80;91.40;;;;;;6222729;28;20030;-78
2021/08/17 10:54:50;;;;;;;9.77;8.02;;;25.00;90.10;;;;;;6222573;28;20460;-81
2021/08/17 10:58:05;;;;;;;10.93;8.20;;;25.00;73.20;;;;;;6188945;28;20029;-78
2021/08/17 11:01:06;;;;;;;9.82;7.90;;;25.20;61.00;;;;;;6189499;28;20028;-82
2021/08/17 11:04:13;;;;;;;11.23;8.33;;;25.20;59.60;;;;;;6205148;28;20030;-81
2021/08/17 11:07:31;;;;;;;10.23;8.02;;;25.40;59.90;;;;;;6205673;28;20030;-78
2021/08/17 11:10:32;;;;;;;11.93;8.18;;;25.50;59.70;;;;;;6224056;28;20034;-79
2021/08/17 11:13:33;;;;;;;10.63;8.07;;;25.50;60.80;;;;;;6208929;28;20069;-79
2021/08/17 11:16:34;;;;;;;10.73;9.03;;;25.20;60.30;;;;;;6208827;28;20045;-79
2021/08/17 11:19:36;;;;;;;10.00;8.30;;;25.50;60.60;;;;;;6209221;28;20044;-79
2021/08/17 11:22:39;;;;;;;10.40;8.20;;;;;;;;;;6209239;28;20030;-80
2021/08/17 11:25:40;;;;;;;11.98;8.57;;;25.20;61.50;;;;;;6226314;28;20108;-82
2021/08/17 11:28:40;;;;;;;11.63;9.07;;;25.10;78.80;;;;;;6226001;28;20026;-80
2021/08/17 11:31:45;;;;;;;11.73;8.57;;;25.10;63.80;;;;;;6208673;28;20030;-80
2021/08/17 11:34:46;;;;;;;11.30;8.55;;;25.00;63.10;;;;;;6192035;28;20057;-81
2021/08/17 11:37:51;;;;;;;11.37;8.33;;;25.20;87.90;;;;;;6226252;28;20076;-81
2021/08/17 11:40:52;;;;;;;10.95;8.32;;;25.40;91.60;;;;;;6225796;28;20084;-79
2021/08/17 11:44:17;;;;;;;12.07;8.37;;;25.30;78.90;;;;;;6225806;28;20042;-83
2021/08/17 11:47:19;;;;;;;14.45;9.38;;;25.30;90.70;;;;;;6209699;28;20034;-79
2021/08/17 11:50:21;;;;;;;12.45;9.43;;;25.10;90.50;;;;;;6226000;28;20391;-81
2021/08/17 11:53:22;;;;;;;14.10;9.52;;;25.10;90.90;;;;;;6208073;28;20049;-81
2021/08/17 11:56:23;;;;;;;14.43;9.50;;;;;;;;;;6192030;28;20473;-80
2021/08/17 11:59:24;;;;;;;13.00;9.38;;;25.20;91.30;;;;;;6208035;28;20033;-79
2021/08/17 12:02:26;;;;;;;14.50;9.30;;;25.20;76.40;;;;;;6225355;28;20034;-79
2021/08/17 12:05:28;;;;;;;10.35;8.30;;;25.70;78.90;;;;;;6225336;28;20379;-81
2021/08/17 12:08:28;;;;;;;10.65;8.15;;;25.50;62.10;;;;;;6225373;28;20057;-79
2021/08/17 12:11:29;;;;;;;10.67;8.47;;;25.50;62.10;;;;;;6191828;28;20053;-82
2021/08/17 12:14:30;;;;;;;11.17;8.63;;;25.50;62.40;;;;;;6207864;28;20018;-79
2021/08/17 12:17:30;;;;;;;12.13;8.07;;;25.50;63.50;;;;;;6224922;28;20033;-81
2021/08/17 12:20:33;;;;;;;12.57;9.13;;;25.40;60.70;;;;;;6224302;28;20034;-80
2021/08/17 12:23:38;;;;;;;12.55;9.02;;;25.20;62.40;;;;;;6207681;28;20487;-79
2021/08/17 12:26:38;;;;;;;11.48;8.77;;;24.80;63.20;;;;;;6207838;28;20483;-80
2021/08/17 12:29:40;;;;;;;12.27;9.27;;;24.40;65.20;;;;;;6224840;28;20029;-79
2021/08/17 12:32:52;;;;;;;11.63;8.85;;;24.10;66.30;;;;;;6224634;28;20046;-80
2021/08/17 12:35:54;;;;;;;12.95;8.77;;;23.80;66.80;;;;;;6224912;28;20034;-79
2021/08/17 12:38:54;;;;;;;11.23;8.68;;;24.10;69.40;;;;;;6224368;28;20034;-81
2021/08/17 12:41:56;;;;;;;12.70;9.50;;;24.00;70.70;;;;;;6224467;28;20057;-80
2021/08/17 12:44:57;;;;;;;;;;;24.10;69.40;;;;;;6225125;28;20041;-79
2021/08/17 12:48:03;;;;;;;11.05;8.38;;;23.90;85.90;;;;;;6224854;28;20610;-79
2021/08/17 12:51:04;;;;;;;11.38;8.65;;;23.80;68.20;;;;;;6224189;28;20033;-82
2021/08/17 12:54:04;;;;;;;11.43;8.30;;;23.90;67.40;;;;;;6206682;28;20420;-80
2021/08/17 12:57:06;;;;;;;12.40;8.73;;;23.80;69.80;;;;;;6206509;28;20045;-78
2021/08/17 13:00:08;;;;;;;13.13;8.65;;;23.90;70.20;;;;;;6223978;28;20097;-79
2021/08/17 13:03:09;;;;;;;12.15;8.48;;;24.20;67.30;;;;;;6224179;28;20096;-82
2021/08/17 13:06:11;;;;;;;11.50;9.07;;;24.70;65.30;;;;;;6224000;28;20033;-82
2021/08/17 13:09:11;;;;;;;11.77;8.98;;;24.70;63.70;;;;;;6224102;28;20486;-81
2021/08/17 13:12:12;;;;;;;10.63;8.63;;;24.80;63.80;;;;;;6224567;28;20034;-81
2021/08/17 13:15:13;;;;;;;10.33;8.40;;;24.70;67.70;;;;;;6206358;28;20041;-81
2021/08/17 13:18:14;;;;;;;11.73;8.85;;;24.50;83.10;;;;;;6223860;28;20045;-82
2021/08/17 13:21:15;;;;;;;9.93;7.67;;;24.60;66.10;;;;;;6205891;28;20117;-80
2021/08/17 13:24:15;;;;;;;9.80;8.57;;;24.90;81.10;;;;;;6206272;28;20468;-81
2021/08/17 13:27:16;;;;;;;13.23;8.57;;;24.70;92.30;;;;;;6205950;28;20542;-81
2021/08/17 13:30:17;;;;;;;10.40;8.60;;;24.40;91.70;;;;;;6223766;28;20040;-79
2021/08/17 13:33:18;;;;;;;11.33;8.60;;;;;;;;;;6188895;28;20436;-80
2021/08/17 13:36:19;;;;;;;12.30;9.17;;;;;;;;;;6223601;28;20049;-79
2021/08/17 13:39:20;;;;;;;12.03;9.57;;;;;;;;;;6223548;28;20452;-78
2021/08/17 13:42:23;;;;;;;14.03;10.33;;;;;;;;;;6223217;28;20392;-80
2021/08/17 13:45:24;;;;;;;13.82;9.50;;;24.40;93.10;;;;;;6223527;28;20025;-79
2021/08/17 13:48:25;;;;;;;11.97;9.37;;;;;;;;;;6223031;28;20100;-80
2021/08/17 13:51:26;;;;;;;13.95;9.55;;;24.10;78.10;;;;;;6206083;28;20080;-81
2021/08/17 13:54:26;;;;;;;13.20;9.40;;;24.10;79.00;;;;;;6223207;28;20065;-79
2021/08/17 13:57:27;;;;;;;11.17;8.70;;;24.00;69.00;;;;;;6205842;28;20037;-81
2021/08/17 14:00:27;;;;;;;12.97;9.90;;;24.10;70.50;;;;;;6222910;28;20054;-81
2021/08/17 14:03:28;;;;;;;13.27;10.30;;;;;;;;;;6223285;28;20038;-81
2021/08/17 14:06:29;;;;;;;13.48;10.75;;;24.30;67.80;;;;;;6223081;28;20030;-81
2021/08/17 14:09:29;;;;;;;14.30;9.47;;;24.40;66.80;;;;;;6223122;28;20361;-80
2021/08/17 14:12:30;;;;;;;13.20;9.50;;;24.60;68.40;;;;;;6222794;28;20018;-79
2021/08/17 14:15:31;;;;;;;12.23;9.97;;;;;;;;;;6205210;28;20107;-81
2021/08/17 14:18:37;;;;;;;13.37;10.40;;;24.20;67.00;;;;;;6222681;28;20030;-78
2021/08/17 14:21:39;;;;;;;12.52;9.50;;;23.90;69.90;;;;;;6205316;28;20104;-81
2021/08/17 14:24:40;;;;;;;15.90;10.35;;;23.70;68.80;;;;;;6222771;28;20142;-82
2021/08/17 14:27:40;;;;;;;14.63;10.43;;;23.60;67.50;;;;;;6205868;28;20026;-82
2021/08/17 14:30:42;;;;;;;14.97;11.20;;;23.50;70.80;;;;;;6223079;28;20030;-79
2021/08/17 14:33:43;;;;;;;;;;;23.20;71.50;;;;;;6223105;28;20484;-78
2021/08/17 14:36:43;;;;;;;13.02;10.63;;;23.00;72.30;;;;;;6205156;28;19917;-80
2021/08/17 14:39:44;;;;;;;15.73;10.98;;;22.70;73.30;;;;;;6205188;28;20032;-79
2021/08/17 14:42:45;;;;;;;16.10;10.82;;;22.60;73.00;;;;;;6222678;28;20137;-82
2021/08/17 14:45:45;;;;;;;16.05;10.88;;;22.50;73.60;;;;;;6208788;28;20038;-78
2021/08/17 14:48:46;;;;;;;16.75;11.98;;;22.40;73.40;;;;;;6209472;28;20026;-82
2021/08/17 14:51:56;;;;;;;17.83;11.18;;;22.40;82.60;;;;;;6226958;28;20116;-79
2021/08/17 14:54:57;;;;;;;12.93;10.00;;;22.30;88.20;;;;;;6210701;28;20042;-80
2021/08/17 14:58:00;;;;;;;13.45;9.50;;;22.30;74.10;;;;;;6227225;28;20372;-79
2021/08/17 15:01:01;;;;;;;14.60;10.18;;;22.30;76.10;;;;;;6193178;28;20662;-81
2021/08/17 15:04:01;;;;;;;12.35;9.50;;;22.40;74.90;;;;;;6227039;28;20029;-82
2021/08/17 15:07:02;;;;;;;14.23;10.23;;;22.30;75.80;;;;;;6209022;28;20027;-81
2021/08/17 15:10:03;;;;;;;12.67;9.63;;;22.30;75.20;;;;;;6209204;28;20403;-79
2021/08/17 15:13:03;;;;;;;13.07;9.57;;;22.30;75.60;;;;;;6226819;28;20821;-79
2021/08/17 15:16:04;;;;;;;12.82;9.20;;;22.40;74.90;;;;;;6226594;28;20056;-78
2021/08/17 15:19:05;;;;;;;13.13;9.97;;;22.40;75.80;;;;;;6176895;28;20033;-79
2021/08/17 15:22:06;;;;;;;14.88;10.23;;;;;;;;;;6208614;28;20553;-80
2021/08/17 15:25:13;;;;;;;12.05;8.98;;;22.30;72.80;;;;;;6209220;28;20032;-81
2021/08/17 15:28:13;;;;;;;15.70;10.30;;;22.00;88.70;;;;;;6208631;28;20117;-79
2021/08/17 15:31:14;;;;;;;14.88;10.75;;;21.80;77.00;;;;;;6208599;28;20033;-79
2021/08/17 15:34:17;;;;;;;13.25;9.82;;;21.70;78.20;;;;;;6208531;28;20661;-79
2021/08/17 15:37:18;;;;;;;12.65;9.65;;;21.70;78.50;;;;;;6208926;28;20041;-78
2021/08/17 15:40:19;;;;;;;16.00;10.45;;;21.70;78.20;;;;;;6226121;28;20084;-79
2021/08/17 15:43:20;;;;;;;12.57;9.80;;;21.90;92.70;;;;;;6208421;28;20113;-79